createdAt,value
2022-12-02T00:01:28.137Z,25.93
2022-12-02T00:06:32.426Z,26.43
2022-12-02T00:11:34.177Z,26.90
2022-12-02T00:16:36.505Z,25.20
2022-12-02T00:21:38.463Z,25.70
2022-12-02T00:26:40.408Z,24.80
2022-12-02T00:31:42.448Z,25.67
2022-12-02T00:36:44.394Z,26.53
2022-12-02T00:41:46.462Z,26.17
2022-12-02T00:46:48.466Z,26.17
2022-12-02T00:51:50.267Z,24.70
2022-12-02T00:56:52.002Z,25.23
2022-12-02T01:01:53.952Z,25.70
2022-12-02T01:06:55.752Z,26.77
2022-12-02T01:11:57.714Z,25.13
2022-12-02T01:17:00.056Z,24.53
2022-12-02T01:22:02.050Z,25.20
2022-12-02T01:27:10.116Z,25.50
2022-12-02T01:32:12.720Z,23.33
2022-12-02T01:37:14.515Z,23.97
2022-12-02T01:42:16.542Z,25.83
2022-12-02T01:47:18.788Z,24.53
2022-12-02T01:52:20.592Z,24.00
2022-12-02T01:57:28.821Z,22.83
2022-12-02T02:02:32.209Z,26.93
2022-12-02T02:07:35.474Z,24.63
2022-12-02T02:12:37.659Z,24.87
2022-12-02T02:17:40.218Z,24.80
2022-12-02T02:23:05.774Z,25.17
2022-12-02T02:28:09.906Z,24.67
2022-12-02T02:33:14.910Z,23.87
2022-12-02T02:38:24.015Z,23.93
2022-12-02T02:43:28.659Z,24.77
2022-12-02T02:48:31.655Z,22.97
2022-12-02T02:53:33.558Z,22.73
2022-12-02T02:58:37.231Z,23.97
2022-12-02T03:03:43.911Z,23.00
2022-12-02T03:08:48.636Z,25.00
2022-12-02T03:13:51.913Z,24.03
2022-12-02T03:18:55.810Z,24.73
2022-12-02T03:24:00.540Z,24.70
2022-12-02T03:29:04.445Z,24.20
2022-12-02T03:34:07.937Z,25.40
2022-12-02T03:39:10.415Z,24.47
2022-12-02T03:44:12.632Z,24.57
2022-12-02T03:49:15.995Z,24.63
2022-12-02T03:54:17.990Z,24.93
2022-12-02T03:59:22.018Z,25.03
2022-12-02T04:04:24.023Z,24.37
2022-12-02T04:09:25.906Z,23.17
2022-12-02T04:14:27.959Z,23.50
2022-12-02T04:19:29.691Z,23.80
2022-12-02T04:24:31.875Z,25.13
2022-12-02T04:29:33.800Z,24.33
2022-12-02T04:34:35.563Z,24.60
2022-12-02T04:39:37.320Z,28.00
2022-12-02T04:44:39.158Z,26.57
2022-12-02T04:49:41.176Z,28.67
2022-12-02T04:54:42.913Z,27.83
2022-12-02T04:59:44.721Z,29.07
2022-12-02T05:04:46.630Z,27.30
2022-12-02T05:09:48.559Z,27.77
2022-12-02T05:14:52.499Z,29.13
2022-12-02T05:19:54.514Z,27.40
2022-12-02T05:24:56.396Z,27.77
2022-12-02T05:29:58.468Z,28.67
2022-12-02T05:35:00.538Z,30.50
2022-12-02T05:40:02.694Z,29.27
2022-12-02T05:45:20.682Z,30.87
2022-12-02T05:50:23.263Z,29.47
2022-12-02T05:55:30.526Z,30.90
2022-12-02T06:00:32.424Z,32.70
2022-12-02T06:05:39.838Z,34.10
2022-12-02T06:10:47.827Z,32.97
2022-12-02T06:15:51.327Z,34.37
2022-12-02T06:20:57.509Z,34.07
2022-12-02T06:26:00.747Z,33.30
2022-12-02T06:31:13.431Z,34.53
2022-12-02T06:36:29.666Z,32.93
2022-12-02T06:41:37.531Z,35.93
2022-12-02T06:46:39.325Z,33.00
2022-12-02T06:51:41.083Z,34.83
2022-12-02T06:56:43.010Z,34.47
2022-12-02T07:01:45.296Z,33.77
2022-12-02T07:06:51.255Z,28.13
2022-12-02T07:11:54.437Z,24.00
2022-12-02T07:17:01.174Z,23.50
2022-12-02T07:22:11.162Z,23.53
2022-12-02T07:27:26.103Z,24.13
2022-12-02T07:32:28.142Z,25.10
2022-12-02T07:37:30.131Z,24.23
2022-12-02T07:42:32.100Z,25.90
2022-12-02T07:47:34.402Z,29.87
2022-12-02T07:52:36.207Z,30.43
2022-12-02T07:57:39.175Z,31.00
2022-12-02T08:02:41.224Z,30.73
2022-12-02T08:07:43.164Z,29.23
2022-12-02T08:12:45.122Z,28.10
2022-12-02T08:17:47.033Z,26.83
2022-12-02T08:22:48.933Z,26.17
2022-12-02T08:27:50.864Z,28.17
2022-12-02T08:32:52.905Z,24.73
2022-12-02T08:37:54.750Z,23.10
2022-12-02T08:42:56.638Z,20.80
2022-12-02T08:47:58.536Z,21.20
2022-12-02T08:53:00.519Z,20.67
2022-12-02T08:58:02.535Z,19.87
2022-12-02T09:03:06.294Z,17.90
2022-12-02T09:08:09.417Z,19.40
2022-12-02T09:13:11.318Z,17.93
2022-12-02T09:18:14.733Z,18.53
2022-12-02T09:23:16.832Z,18.90
2022-12-02T09:28:20.491Z,17.70
2022-12-02T09:33:22.396Z,18.07
2022-12-02T09:38:24.240Z,19.00
2022-12-02T09:43:30.511Z,19.23
2022-12-02T09:48:32.522Z,17.03
2022-12-02T09:53:37.874Z,17.93
2022-12-02T09:58:39.773Z,17.97
2022-12-02T10:03:43.024Z,16.30
2022-12-02T10:08:45.066Z,16.43
2022-12-02T10:13:47.000Z,18.13
2022-12-02T10:18:49.339Z,18.97
2022-12-02T10:23:55.375Z,17.67
2022-12-02T10:29:09.491Z,19.33
2022-12-02T10:34:20.447Z,18.90
2022-12-02T10:39:37.967Z,20.27
2022-12-02T10:44:43.092Z,17.97
2022-12-02T10:49:53.996Z,16.10
2022-12-02T10:54:57.809Z,16.60
2022-12-02T11:00:07.286Z,16.10
2022-12-02T11:05:17.568Z,18.30
2022-12-02T11:10:22.229Z,16.77
2022-12-02T11:15:49.465Z,16.27
2022-12-02T11:20:55.574Z,17.87
2022-12-02T11:26:18.372Z,16.63
2022-12-02T11:31:24.968Z,15.60
2022-12-02T11:36:29.694Z,14.67
2022-12-02T11:41:54.198Z,15.60
2022-12-02T11:46:58.955Z,14.13
2022-12-02T11:52:09.431Z,13.70
2022-12-02T11:57:24.709Z,15.13
2022-12-02T12:02:26.565Z,15.20
2022-12-02T12:07:49.280Z,12.93
2022-12-02T12:13:24.446Z,14.37
2022-12-02T12:18:48.574Z,14.43
2022-12-02T12:23:50.307Z,12.90
2022-12-02T12:28:52.380Z,12.67
2022-12-02T12:33:54.938Z,11.73
2022-12-02T12:38:56.884Z,12.27
2022-12-02T12:43:58.911Z,12.77
2022-12-02T12:49:00.811Z,11.77
2022-12-02T12:54:02.715Z,12.80
2022-12-02T12:59:04.453Z,12.87
2022-12-02T13:04:06.257Z,13.37
2022-12-02T13:09:08.762Z,12.80
2022-12-02T13:14:10.702Z,13.43
2022-12-02T13:19:12.474Z,12.47
2022-12-02T13:24:15.988Z,13.07
2022-12-02T13:29:18.067Z,12.73
2022-12-02T13:34:19.911Z,13.83
2022-12-02T13:39:21.835Z,13.30
2022-12-02T13:44:23.738Z,12.27
2022-12-02T13:49:25.594Z,13.60
2022-12-02T13:54:27.660Z,14.80
2022-12-02T13:59:34.312Z,14.17
2022-12-02T14:04:39.710Z,15.30
2022-12-02T14:09:41.516Z,14.97
2022-12-02T14:14:43.418Z,16.47
2022-12-02T14:19:45.166Z,15.47
2022-12-02T14:24:49.067Z,15.10
2022-12-02T14:29:51.411Z,16.77
2022-12-02T14:34:53.613Z,16.57
2022-12-02T14:39:55.599Z,17.43
2022-12-02T14:44:57.607Z,17.00
2022-12-02T14:49:59.634Z,17.80
2022-12-02T14:55:01.515Z,15.80
2022-12-02T15:00:04.524Z,16.60
2022-12-02T15:05:13.826Z,19.37
2022-12-02T15:10:17.107Z,18.80
2022-12-02T15:20:40.986Z,16.03
2022-12-02T15:25:42.742Z,15.47
2022-12-02T15:30:44.753Z,17.33
2022-12-02T15:35:47.464Z,15.73
2022-12-02T15:40:49.922Z,16.47
2022-12-02T15:45:51.671Z,16.77
2022-12-02T15:50:55.515Z,17.17
2022-12-02T15:55:57.929Z,16.30
2022-12-02T16:01:00.236Z,15.57
2022-12-02T16:06:02.147Z,15.83
2022-12-02T16:11:03.996Z,16.47
2022-12-02T16:16:05.999Z,15.20
2022-12-02T16:21:07.881Z,17.37
2022-12-02T16:26:09.779Z,16.30
2022-12-02T16:31:11.792Z,14.70
2022-12-02T16:36:13.794Z,14.23
2022-12-02T16:41:15.531Z,16.47
2022-12-02T16:46:19.090Z,14.70
2022-12-02T16:51:21.046Z,15.63
2022-12-02T16:56:22.935Z,16.80
2022-12-02T17:01:25.337Z,16.67
2022-12-02T17:06:27.340Z,18.60
2022-12-02T17:11:29.307Z,17.13
2022-12-02T17:16:31.233Z,18.43
2022-12-02T17:21:33.053Z,18.03
2022-12-02T17:26:34.899Z,20.93
2022-12-02T17:31:36.774Z,20.03
2022-12-02T17:36:38.759Z,18.90
2022-12-02T17:41:40.516Z,20.47
2022-12-02T17:46:42.259Z,20.53
2022-12-02T17:52:06.360Z,24.37
2022-12-02T17:57:05.883Z,23.30
2022-12-02T18:02:09.916Z,24.23
2022-12-02T18:07:12.380Z,24.23
2022-12-02T18:12:14.158Z,23.77
2022-12-02T18:17:16.430Z,22.60
2022-12-02T18:22:18.513Z,24.93
2022-12-02T18:27:20.350Z,26.93
2022-12-02T18:32:22.334Z,25.43
2022-12-02T18:37:24.183Z,25.30
2022-12-02T18:42:26.004Z,28.00
2022-12-02T18:47:28.072Z,24.40
2022-12-02T18:52:30.062Z,24.07
2022-12-02T18:57:31.875Z,24.30
2022-12-02T19:02:33.967Z,22.07
2022-12-02T19:07:36.767Z,23.07
2022-12-02T19:12:38.730Z,22.20
2022-12-02T19:17:40.869Z,22.27
2022-12-02T19:22:45.935Z,23.10
2022-12-02T19:27:57.276Z,22.80
2022-12-02T19:32:59.995Z,22.37
2022-12-02T19:38:05.892Z,24.23
2022-12-02T19:43:11.105Z,20.53
2022-12-02T19:48:12.938Z,21.43
2022-12-02T19:53:14.780Z,21.97
2022-12-02T19:58:16.571Z,22.47
2022-12-02T20:03:18.615Z,21.60
2022-12-02T20:08:20.637Z,21.90
2022-12-02T20:13:22.705Z,19.53
2022-12-02T20:18:24.492Z,20.77
2022-12-02T20:23:26.468Z,22.73
2022-12-02T20:28:28.519Z,20.53
2022-12-02T20:33:30.458Z,19.63
2022-12-02T20:38:32.350Z,21.37
2022-12-02T20:43:34.084Z,21.93
2022-12-02T20:48:35.890Z,21.43
2022-12-02T20:53:37.770Z,21.73
2022-12-02T20:58:39.765Z,19.43
2022-12-02T21:03:41.868Z,20.70
2022-12-02T21:08:43.796Z,20.23
2022-12-02T21:13:45.852Z,20.43
2022-12-02T21:18:48.362Z,18.57
2022-12-02T21:23:50.285Z,20.33
2022-12-02T21:28:52.219Z,21.37
2022-12-02T21:33:54.003Z,18.87
2022-12-02T21:38:55.911Z,18.93
2022-12-02T21:43:57.654Z,21.20
2022-12-02T21:48:59.688Z,19.27
2022-12-02T21:54:03.372Z,19.67
2022-12-02T21:59:05.488Z,19.97
2022-12-02T22:04:16.028Z,18.33
2022-12-02T22:09:20.574Z,18.40
2022-12-02T22:14:22.486Z,18.07
2022-12-02T22:19:24.231Z,19.53
2022-12-02T22:24:26.208Z,19.20
2022-12-02T22:29:28.251Z,17.13
2022-12-02T22:34:30.259Z,18.30
2022-12-02T22:39:32.005Z,18.13
2022-12-02T22:44:33.858Z,17.13
2022-12-02T22:49:35.676Z,17.03
2022-12-02T22:54:37.445Z,17.57
2022-12-02T22:59:39.211Z,17.93
2022-12-02T23:04:41.104Z,19.93
2022-12-02T23:09:43.014Z,17.37
2022-12-02T23:14:44.822Z,15.93
2022-12-02T23:19:46.712Z,15.53
2022-12-02T23:24:48.422Z,16.97
2022-12-02T23:29:50.327Z,18.17
2022-12-02T23:34:52.513Z,14.70
2022-12-02T23:39:54.512Z,16.30
2022-12-02T23:44:56.449Z,14.07
2022-12-02T23:49:58.355Z,15.73
2022-12-02T23:55:00.486Z,14.23
